sensor_id;sensor_type;location;lat;lon;timestamp;P1;durP1;ratioP1;P2;durP2;ratioP2
67930;SDS011;63902;52.000;5.954;2023-02-19T00:00:36;23.05;;;10.07;;
67930;SDS011;63902;52.000;5.954;2023-02-19T00:01:38;23.83;;;10.88;;
67930;SDS011;63902;52.000;5.954;2023-02-19T00:02:40;26.00;;;9.85;;
67930;SDS011;63902;52.000;5.954;2023-02-19T00:03:41;20.48;;;9.95;;
67930;SDS011;63902;52.000;5.954;2023-02-19T00:04:47;31.05;;;12.85;;
67930;SDS011;63902;52.000;5.954;2023-02-19T00:05:47;23.00;;;10.55;;
67930;SDS011;63902;52.000;5.954;2023-02-19T00:06:48;27.85;;;11.05;;
67930;SDS011;63902;52.000;5.954;2023-02-19T00:07:49;21.42;;;11.30;;
67930;SDS011;63902;52.000;5.954;2023-02-19T00:08:49;26.02;;;10.85;;
67930;SDS011;63902;52.000;5.954;2023-02-19T00:09:50;23.20;;;10.75;;
67930;SDS011;63902;52.000;5.954;2023-02-19T00:10:52;27.63;;;11.93;;
67930;SDS011;63902;52.000;5.954;2023-02-19T00:11:52;26.45;;;11.13;;
67930;SDS011;63902;52.000;5.954;2023-02-19T00:12:53;31.55;;;12.05;;
67930;SDS011;63902;52.000;5.954;2023-02-19T00:13:53;35.58;;;12.82;;
67930;SDS011;63902;52.000;5.954;2023-02-19T00:14:55;26.55;;;11.98;;
67930;SDS011;63902;52.000;5.954;2023-02-19T00:15:56;21.92;;;11.70;;
67930;SDS011;63902;52.000;5.954;2023-02-19T00:16:56;24.60;;;14.57;;
67930;SDS011;63902;52.000;5.954;2023-02-19T00:17:56;32.22;;;12.00;;
67930;SDS011;63902;52.000;5.954;2023-02-19T00:18:58;32.13;;;12.48;;
67930;SDS011;63902;52.000;5.954;2023-02-19T00:19:59;28.00;;;13.35;;
67930;SDS011;63902;52.000;5.954;2023-02-19T00:21:00;29.45;;;12.70;;
67930;SDS011;63902;52.000;5.954;2023-02-19T00:22:01;30.35;;;12.23;;
67930;SDS011;63902;52.000;5.954;2023-02-19T00:23:01;38.08;;;13.68;;
67930;SDS011;63902;52.000;5.954;2023-02-19T00:24:02;34.58;;;12.52;;
67930;SDS011;63902;52.000;5.954;2023-02-19T00:25:04;27.90;;;12.95;;
67930;SDS011;63902;52.000;5.954;2023-02-19T00:26:07;27.65;;;13.60;;
67930;SDS011;63902;52.000;5.954;2023-02-19T00:27:08;31.15;;;13.55;;
67930;SDS011;63902;52.000;5.954;2023-02-19T00:28:09;29.73;;;12.73;;
67930;SDS011;63902;52.000;5.954;2023-02-19T00:29:11;26.65;;;11.00;;
67930;SDS011;63902;52.000;5.954;2023-02-19T00:30:13;23.67;;;10.60;;
67930;SDS011;63902;52.000;5.954;2023-02-19T00:31:15;29.90;;;12.20;;
67930;SDS011;63902;52.000;5.954;2023-02-19T00:32:16;25.88;;;11.18;;
67930;SDS011;63902;52.000;5.954;2023-02-19T00:33:17;25.08;;;12.27;;
67930;SDS011;63902;52.000;5.954;2023-02-19T00:34:17;25.05;;;11.23;;
67930;SDS011;63902;52.000;5.954;2023-02-19T00:35:18;27.63;;;12.43;;
67930;SDS011;63902;52.000;5.954;2023-02-19T00:36:18;22.00;;;11.20;;
67930;SDS011;63902;52.000;5.954;2023-02-19T00:37:19;31.98;;;12.32;;
67930;SDS011;63902;52.000;5.954;2023-02-19T00:38:19;20.55;;;10.27;;
67930;SDS011;63902;52.000;5.954;2023-02-19T00:39:20;25.13;;;11.32;;
67930;SDS011;63902;52.000;5.954;2023-02-19T00:40:20;27.90;;;11.38;;
67930;SDS011;63902;52.000;5.954;2023-02-19T00:41:22;27.45;;;13.20;;
67930;SDS011;63902;52.000;5.954;2023-02-19T00:42:25;21.17;;;10.82;;
67930;SDS011;63902;52.000;5.954;2023-02-19T00:43:26;25.27;;;11.85;;
67930;SDS011;63902;52.000;5.954;2023-02-19T00:44:26;24.95;;;10.38;;
67930;SDS011;63902;52.000;5.954;2023-02-19T00:45:27;19.83;;;11.25;;
67930;SDS011;63902;52.000;5.954;2023-02-19T00:46:28;24.45;;;11.57;;
67930;SDS011;63902;52.000;5.954;2023-02-19T00:47:29;25.63;;;10.80;;
67930;SDS011;63902;52.000;5.954;2023-02-19T00:48:30;25.50;;;11.55;;
67930;SDS011;63902;52.000;5.954;2023-02-19T00:49:30;20.25;;;10.10;;
67930;SDS011;63902;52.000;5.954;2023-02-19T00:50:31;19.25;;;10.85;;
67930;SDS011;63902;52.000;5.954;2023-02-19T00:51:32;25.60;;;11.15;;
67930;SDS011;63902;52.000;5.954;2023-02-19T00:52:34;24.80;;;11.07;;
67930;SDS011;63902;52.000;5.954;2023-02-19T00:53:35;28.15;;;11.25;;
67930;SDS011;63902;52.000;5.954;2023-02-19T00:54:35;18.42;;;11.10;;
67930;SDS011;63902;52.000;5.954;2023-02-19T00:55:36;22.25;;;10.38;;
67930;SDS011;63902;52.000;5.954;2023-02-19T00:56:37;22.42;;;11.45;;
67930;SDS011;63902;52.000;5.954;2023-02-19T00:57:38;24.70;;;11.45;;
67930;SDS011;63902;52.000;5.954;2023-02-19T00:58:38;22.38;;;11.27;;
67930;SDS011;63902;52.000;5.954;2023-02-19T00:59:39;24.10;;;10.32;;
67930;SDS011;63902;52.000;5.954;2023-02-19T01:00:40;25.08;;;11.60;;
67930;SDS011;63902;52.000;5.954;2023-02-19T01:01:40;22.45;;;11.02;;
67930;SDS011;63902;52.000;5.954;2023-02-19T01:02:41;17.73;;;10.10;;
67930;SDS011;63902;52.000;5.954;2023-02-19T01:03:42;16.35;;;9.02;;
67930;SDS011;63902;52.000;5.954;2023-02-19T01:04:42;16.58;;;9.50;;
67930;SDS011;63902;52.000;5.954;2023-02-19T01:05:43;19.38;;;9.23;;
67930;SDS011;63902;52.000;5.954;2023-02-19T01:06:43;18.17;;;8.65;;
67930;SDS011;63902;52.000;5.954;2023-02-19T01:07:43;16.48;;;8.50;;
67930;SDS011;63902;52.000;5.954;2023-02-19T01:08:44;17.80;;;9.60;;
67930;SDS011;63902;52.000;5.954;2023-02-19T01:09:45;16.52;;;7.95;;
67930;SDS011;63902;52.000;5.954;2023-02-19T01:10:45;15.23;;;9.18;;
67930;SDS011;63902;52.000;5.954;2023-02-19T01:11:47;18.52;;;9.00;;
67930;SDS011;63902;52.000;5.954;2023-02-19T01:12:48;13.90;;;8.20;;
67930;SDS011;63902;52.000;5.954;2023-02-19T01:13:48;17.92;;;7.95;;
67930;SDS011;63902;52.000;5.954;2023-02-19T01:14:49;16.48;;;8.20;;
67930;SDS011;63902;52.000;5.954;2023-02-19T01:15:49;13.45;;;7.95;;
67930;SDS011;63902;52.000;5.954;2023-02-19T01:16:50;13.15;;;8.18;;
67930;SDS011;63902;52.000;5.954;2023-02-19T01:17:50;17.52;;;9.38;;
67930;SDS011;63902;52.000;5.954;2023-02-19T01:18:51;19.30;;;7.78;;
67930;SDS011;63902;52.000;5.954;2023-02-19T01:19:51;18.45;;;9.05;;
67930;SDS011;63902;52.000;5.954;2023-02-19T01:20:52;16.00;;;8.38;;
67930;SDS011;63902;52.000;5.954;2023-02-19T01:21:52;14.75;;;8.63;;
67930;SDS011;63902;52.000;5.954;2023-02-19T01:22:53;22.15;;;9.13;;
67930;SDS011;63902;52.000;5.954;2023-02-19T01:23:54;16.75;;;9.07;;
67930;SDS011;63902;52.000;5.954;2023-02-19T01:24:55;15.65;;;9.57;;
67930;SDS011;63902;52.000;5.954;2023-02-19T01:25:55;15.65;;;8.30;;
67930;SDS011;63902;52.000;5.954;2023-02-19T01:26:57;18.55;;;8.77;;
67930;SDS011;63902;52.000;5.954;2023-02-19T01:27:58;17.80;;;9.38;;
67930;SDS011;63902;52.000;5.954;2023-02-19T01:28:58;16.95;;;8.57;;
67930;SDS011;63902;52.000;5.954;2023-02-19T01:29:59;14.32;;;7.32;;
67930;SDS011;63902;52.000;5.954;2023-02-19T01:31:00;22.60;;;9.45;;
67930;SDS011;63902;52.000;5.954;2023-02-19T01:32:01;20.60;;;9.38;;
67930;SDS011;63902;52.000;5.954;2023-02-19T01:33:02;20.17;;;9.55;;
67930;SDS011;63902;52.000;5.954;2023-02-19T01:34:03;32.53;;;10.30;;
67930;SDS011;63902;52.000;5.954;2023-02-19T01:35:04;15.55;;;8.63;;
67930;SDS011;63902;52.000;5.954;2023-02-19T01:36:05;22.55;;;10.25;;
67930;SDS011;63902;52.000;5.954;2023-02-19T01:37:06;25.02;;;9.68;;
67930;SDS011;63902;52.000;5.954;2023-02-19T01:38:06;17.98;;;9.63;;
67930;SDS011;63902;52.000;5.954;2023-02-19T01:39:07;18.00;;;7.35;;
67930;SDS011;63902;52.000;5.954;2023-02-19T01:40:08;20.75;;;9.73;;
67930;SDS011;63902;52.000;5.954;2023-02-19T01:41:09;21.38;;;10.75;;
67930;SDS011;63902;52.000;5.954;2023-02-19T01:42:14;22.38;;;9.98;;
67930;SDS011;63902;52.000;5.954;2023-02-19T01:43:15;22.33;;;10.30;;
67930;SDS011;63902;52.000;5.954;2023-02-19T01:45:53;22.13;;;8.70;;
67930;SDS011;63902;52.000;5.954;2023-02-19T01:46:54;20.33;;;9.65;;
67930;SDS011;63902;52.000;5.954;2023-02-19T01:48:00;19.45;;;10.25;;
67930;SDS011;63902;52.000;5.954;2023-02-19T01:49:05;29.48;;;10.05;;
67930;SDS011;63902;52.000;5.954;2023-02-19T01:50:09;28.90;;;9.50;;
67930;SDS011;63902;52.000;5.954;2023-02-19T01:51:10;21.58;;;9.70;;
67930;SDS011;63902;52.000;5.954;2023-02-19T01:52:15;24.75;;;10.10;;
67930;SDS011;63902;52.000;5.954;2023-02-19T01:53:21;25.80;;;10.38;;
67930;SDS011;63902;52.000;5.954;2023-02-19T01:54:24;19.33;;;9.07;;
67930;SDS011;63902;52.000;5.954;2023-02-19T01:55:27;25.33;;;10.95;;
67930;SDS011;63902;52.000;5.954;2023-02-19T01:56:28;21.08;;;9.75;;
67930;SDS011;63902;52.000;5.954;2023-02-19T01:57:32;19.88;;;9.05;;
67930;SDS011;63902;52.000;5.954;2023-02-19T01:58:37;23.98;;;9.32;;
67930;SDS011;63902;52.000;5.954;2023-02-19T01:59:38;16.58;;;9.65;;
67930;SDS011;63902;52.000;5.954;2023-02-19T02:00:39;18.33;;;9.02;;
67930;SDS011;63902;52.000;5.954;2023-02-19T02:01:40;17.50;;;9.45;;
67930;SDS011;63902;52.000;5.954;2023-02-19T02:02:41;25.75;;;9.90;;
67930;SDS011;63902;52.000;5.954;2023-02-19T02:03:44;32.15;;;10.32;;
67930;SDS011;63902;52.000;5.954;2023-02-19T02:04:47;20.45;;;9.15;;
67930;SDS011;63902;52.000;5.954;2023-02-19T02:05:49;23.83;;;9.95;;
67930;SDS011;63902;52.000;5.954;2023-02-19T02:06:55;19.48;;;9.60;;
67930;SDS011;63902;52.000;5.954;2023-02-19T02:07:59;17.90;;;8.55;;
67930;SDS011;63902;52.000;5.954;2023-02-19T02:09:02;17.60;;;8.90;;
67930;SDS011;63902;52.000;5.954;2023-02-19T02:10:02;19.17;;;9.02;;
67930;SDS011;63902;52.000;5.954;2023-02-19T02:11:03;18.60;;;9.50;;
67930;SDS011;63902;52.000;5.954;2023-02-19T02:12:05;13.85;;;8.25;;
67930;SDS011;63902;52.000;5.954;2023-02-19T02:13:07;17.50;;;7.05;;
67930;SDS011;63902;52.000;5.954;2023-02-19T02:14:08;19.52;;;8.13;;
67930;SDS011;63902;52.000;5.954;2023-02-19T02:15:08;16.52;;;8.48;;
67930;SDS011;63902;52.000;5.954;2023-02-19T02:16:13;17.40;;;8.65;;
67930;SDS011;63902;52.000;5.954;2023-02-19T02:17:23;11.85;;;7.32;;
67930;SDS011;63902;52.000;5.954;2023-02-19T02:18:27;22.00;;;8.73;;
67930;SDS011;63902;52.000;5.954;2023-02-19T02:19:44;13.70;;;8.23;;
67930;SDS011;63902;52.000;5.954;2023-02-19T02:21:08;18.05;;;8.27;;
67930;SDS011;63902;52.000;5.954;2023-02-19T02:22:24;17.42;;;7.95;;
67930;SDS011;63902;52.000;5.954;2023-02-19T02:23:30;22.23;;;7.97;;
67930;SDS011;63902;52.000;5.954;2023-02-19T02:24:51;19.83;;;7.60;;
67930;SDS011;63902;52.000;5.954;2023-02-19T02:26:15;17.55;;;8.35;;
67930;SDS011;63902;52.000;5.954;2023-02-19T02:29:13;14.85;;;8.35;;
67930;SDS011;63902;52.000;5.954;2023-02-19T02:30:39;24.73;;;7.50;;
67930;SDS011;63902;52.000;5.954;2023-02-19T02:31:42;17.85;;;8.05;;
67930;SDS011;63902;52.000;5.954;2023-02-19T02:32:50;15.18;;;8.27;;
67930;SDS011;63902;52.000;5.954;2023-02-19T02:33:56;17.08;;;7.00;;
67930;SDS011;63902;52.000;5.954;2023-02-19T02:35:02;16.60;;;7.50;;
67930;SDS011;63902;52.000;5.954;2023-02-19T02:36:07;18.42;;;7.78;;
67930;SDS011;63902;52.000;5.954;2023-02-19T02:37:15;14.30;;;6.82;;
67930;SDS011;63902;52.000;5.954;2023-02-19T02:38:15;15.82;;;7.32;;
67930;SDS011;63902;52.000;5.954;2023-02-19T02:39:21;14.90;;;7.88;;
67930;SDS011;63902;52.000;5.954;2023-02-19T02:40:24;14.93;;;7.35;;
67930;SDS011;63902;52.000;5.954;2023-02-19T02:41:24;19.60;;;7.82;;
67930;SDS011;63902;52.000;5.954;2023-02-19T02:42:25;16.85;;;7.43;;
67930;SDS011;63902;52.000;5.954;2023-02-19T02:43:25;17.95;;;7.53;;
67930;SDS011;63902;52.000;5.954;2023-02-19T02:44:32;19.65;;;7.55;;
67930;SDS011;63902;52.000;5.954;2023-02-19T02:45:33;17.40;;;6.97;;
67930;SDS011;63902;52.000;5.954;2023-02-19T02:46:35;15.30;;;7.95;;
67930;SDS011;63902;52.000;5.954;2023-02-19T02:47:40;15.57;;;7.20;;
67930;SDS011;63902;52.000;5.954;2023-02-19T02:48:45;14.40;;;6.40;;
67930;SDS011;63902;52.000;5.954;2023-02-19T02:49:49;15.38;;;7.20;;
67930;SDS011;63902;52.000;5.954;2023-02-19T02:50:50;25.45;;;6.85;;
67930;SDS011;63902;52.000;5.954;2023-02-19T02:51:53;17.08;;;6.35;;
67930;SDS011;63902;52.000;5.954;2023-02-19T02:52:58;9.95;;;6.15;;
67930;SDS011;63902;52.000;5.954;2023-02-19T02:54:02;11.35;;;5.90;;
67930;SDS011;63902;52.000;5.954;2023-02-19T02:55:06;15.07;;;6.63;;
67930;SDS011;63902;52.000;5.954;2023-02-19T02:56:08;18.38;;;7.57;;
67930;SDS011;63902;52.000;5.954;2023-02-19T02:57:10;18.92;;;6.93;;
67930;SDS011;63902;52.000;5.954;2023-02-19T02:58:13;15.77;;;6.90;;
67930;SDS011;63902;52.000;5.954;2023-02-19T02:59:15;19.92;;;6.55;;
67930;SDS011;63902;52.000;5.954;2023-02-19T03:00:18;23.48;;;6.82;;
67930;SDS011;63902;52.000;5.954;2023-02-19T03:01:20;21.17;;;6.55;;
67930;SDS011;63902;52.000;5.954;2023-02-19T03:02:26;18.60;;;7.07;;
67930;SDS011;63902;52.000;5.954;2023-02-19T03:03:29;23.08;;;6.80;;
67930;SDS011;63902;52.000;5.954;2023-02-19T03:04:32;16.80;;;6.30;;
67930;SDS011;63902;52.000;5.954;2023-02-19T03:05:37;13.25;;;6.18;;
67930;SDS011;63902;52.000;5.954;2023-02-19T03:06:38;20.42;;;7.07;;
67930;SDS011;63902;52.000;5.954;2023-02-19T03:07:42;14.45;;;5.80;;
67930;SDS011;63902;52.000;5.954;2023-02-19T03:08:49;17.77;;;7.40;;
67930;SDS011;63902;52.000;5.954;2023-02-19T03:09:56;14.30;;;6.78;;
67930;SDS011;63902;52.000;5.954;2023-02-19T03:10:59;18.27;;;6.32;;
67930;SDS011;63902;52.000;5.954;2023-02-19T03:12:03;16.33;;;6.22;;
67930;SDS011;63902;52.000;5.954;2023-02-19T03:13:09;17.10;;;6.28;;
67930;SDS011;63902;52.000;5.954;2023-02-19T03:14:15;13.95;;;5.40;;
67930;SDS011;63902;52.000;5.954;2023-02-19T03:15:19;14.45;;;6.10;;
67930;SDS011;63902;52.000;5.954;2023-02-19T03:16:23;17.83;;;5.38;;
67930;SDS011;63902;52.000;5.954;2023-02-19T03:17:29;18.13;;;6.32;;
67930;SDS011;63902;52.000;5.954;2023-02-19T03:18:36;18.88;;;5.75;;
67930;SDS011;63902;52.000;5.954;2023-02-19T03:19:40;17.52;;;5.97;;
67930;SDS011;63902;52.000;5.954;2023-02-19T03:20:43;20.50;;;5.57;;
67930;SDS011;63902;52.000;5.954;2023-02-19T03:21:50;16.15;;;5.75;;
67930;SDS011;63902;52.000;5.954;2023-02-19T03:22:55;20.48;;;6.38;;
67930;SDS011;63902;52.000;5.954;2023-02-19T03:23:58;23.70;;;6.75;;
67930;SDS011;63902;52.000;5.954;2023-02-19T03:25:00;12.32;;;5.50;;
67930;SDS011;63902;52.000;5.954;2023-02-19T03:26:04;19.58;;;6.70;;
67930;SDS011;63902;52.000;5.954;2023-02-19T03:27:05;17.15;;;6.03;;
67930;SDS011;63902;52.000;5.954;2023-02-19T03:28:08;13.07;;;5.35;;
67930;SDS011;63902;52.000;5.954;2023-02-19T03:29:11;9.15;;;4.95;;
67930;SDS011;63902;52.000;5.954;2023-02-19T03:30:14;9.35;;;5.13;;
67930;SDS011;63902;52.000;5.954;2023-02-19T03:31:20;24.05;;;5.22;;
67930;SDS011;63902;52.000;5.954;2023-02-19T03:32:24;14.70;;;5.18;;
67930;SDS011;63902;52.000;5.954;2023-02-19T03:33:30;14.18;;;4.93;;
67930;SDS011;63902;52.000;5.954;2023-02-19T03:34:31;14.52;;;4.68;;
67930;SDS011;63902;52.000;5.954;2023-02-19T03:35:36;16.05;;;4.97;;
67930;SDS011;63902;52.000;5.954;2023-02-19T03:36:42;10.10;;;5.00;;
67930;SDS011;63902;52.000;5.954;2023-02-19T03:37:46;13.25;;;4.95;;
67930;SDS011;63902;52.000;5.954;2023-02-19T03:38:51;8.00;;;4.38;;
67930;SDS011;63902;52.000;5.954;2023-02-19T03:39:56;11.80;;;4.28;;
67930;SDS011;63902;52.000;5.954;2023-02-19T03:40:57;19.23;;;4.75;;
67930;SDS011;63902;52.000;5.954;2023-02-19T03:42:04;16.23;;;5.28;;
67930;SDS011;63902;52.000;5.954;2023-02-19T03:43:15;12.80;;;4.72;;
67930;SDS011;63902;52.000;5.954;2023-02-19T03:44:21;16.52;;;4.63;;
67930;SDS011;63902;52.000;5.954;2023-02-19T03:45:30;14.13;;;5.30;;
67930;SDS011;63902;52.000;5.954;2023-02-19T03:46:41;11.48;;;4.72;;
67930;SDS011;63902;52.000;5.954;2023-02-19T03:47:48;10.85;;;4.45;;
67930;SDS011;63902;52.000;5.954;2023-02-19T03:48:54;7.93;;;4.00;;
67930;SDS011;63902;52.000;5.954;2023-02-19T03:49:58;21.75;;;4.72;;
67930;SDS011;63902;52.000;5.954;2023-02-19T03:51:11;11.98;;;4.50;;
67930;SDS011;63902;52.000;5.954;2023-02-19T03:52:21;11.95;;;4.00;;
67930;SDS011;63902;52.000;5.954;2023-02-19T03:53:31;8.73;;;4.05;;
67930;SDS011;63902;52.000;5.954;2023-02-19T03:54:36;10.57;;;3.95;;
67930;SDS011;63902;52.000;5.954;2023-02-19T03:55:39;14.13;;;3.90;;
67930;SDS011;63902;52.000;5.954;2023-02-19T03:56:46;12.63;;;4.70;;
67930;SDS011;63902;52.000;5.954;2023-02-19T03:57:52;11.80;;;3.78;;
67930;SDS011;63902;52.000;5.954;2023-02-19T03:58:57;11.93;;;4.38;;
67930;SDS011;63902;52.000;5.954;2023-02-19T04:00:03;11.57;;;4.13;;
67930;SDS011;63902;52.000;5.954;2023-02-19T04:01:08;11.68;;;4.10;;
67930;SDS011;63902;52.000;5.954;2023-02-19T04:02:12;8.75;;;4.28;;
67930;SDS011;63902;52.000;5.954;2023-02-19T04:03:19;12.52;;;3.55;;
67930;SDS011;63902;52.000;5.954;2023-02-19T04:04:26;14.82;;;4.68;;
67930;SDS011;63902;52.000;5.954;2023-02-19T04:05:32;13.32;;;4.00;;
67930;SDS011;63902;52.000;5.954;2023-02-19T04:06:36;9.98;;;4.70;;
67930;SDS011;63902;52.000;5.954;2023-02-19T04:07:40;13.73;;;4.32;;
67930;SDS011;63902;52.000;5.954;2023-02-19T04:08:45;12.93;;;3.80;;
67930;SDS011;63902;52.000;5.954;2023-02-19T04:09:49;9.35;;;3.88;;
67930;SDS011;63902;52.000;5.954;2023-02-19T04:10:50;11.20;;;3.90;;
67930;SDS011;63902;52.000;5.954;2023-02-19T04:11:53;10.63;;;4.15;;
67930;SDS011;63902;52.000;5.954;2023-02-19T04:12:55;10.00;;;4.32;;
67930;SDS011;63902;52.000;5.954;2023-02-19T04:14:01;9.88;;;4.28;;
67930;SDS011;63902;52.000;5.954;2023-02-19T04:15:07;13.77;;;4.55;;
67930;SDS011;63902;52.000;5.954;2023-02-19T04:16:12;8.68;;;3.67;;
67930;SDS011;63902;52.000;5.954;2023-02-19T04:17:21;8.75;;;3.53;;
67930;SDS011;63902;52.000;5.954;2023-02-19T04:18:27;14.63;;;3.80;;
67930;SDS011;63902;52.000;5.954;2023-02-19T04:19:34;5.95;;;3.63;;
67930;SDS011;63902;52.000;5.954;2023-02-19T04:20:39;11.63;;;3.72;;
67930;SDS011;63902;52.000;5.954;2023-02-19T04:21:42;12.85;;;4.10;;
67930;SDS011;63902;52.000;5.954;2023-02-19T04:22:45;10.05;;;3.58;;
67930;SDS011;63902;52.000;5.954;2023-02-19T04:23:47;9.15;;;3.85;;
67930;SDS011;63902;52.000;5.954;2023-02-19T04:24:49;11.20;;;3.90;;
67930;SDS011;63902;52.000;5.954;2023-02-19T04:25:52;10.18;;;3.88;;
67930;SDS011;63902;52.000;5.954;2023-02-19T04:26:56;11.00;;;4.40;;
67930;SDS011;63902;52.000;5.954;2023-02-19T04:27:57;9.75;;;4.45;;
67930;SDS011;63902;52.000;5.954;2023-02-19T04:28:58;13.98;;;4.30;;
67930;SDS011;63902;52.000;5.954;2023-02-19T04:29:58;13.02;;;4.88;;
67930;SDS011;63902;52.000;5.954;2023-02-19T04:30:59;11.95;;;3.88;;
67930;SDS011;63902;52.000;5.954;2023-02-19T04:32:00;15.25;;;4.15;;
67930;SDS011;63902;52.000;5.954;2023-02-19T04:33:01;12.30;;;4.00;;
67930;SDS011;63902;52.000;5.954;2023-02-19T04:34:01;9.95;;;3.80;;
67930;SDS011;63902;52.000;5.954;2023-02-19T04:35:03;7.68;;;3.92;;
67930;SDS011;63902;52.000;5.954;2023-02-19T04:36:05;9.02;;;4.00;;
67930;SDS011;63902;52.000;5.954;2023-02-19T04:37:08;16.58;;;4.53;;
67930;SDS011;63902;52.000;5.954;2023-02-19T04:38:09;11.10;;;3.90;;
67930;SDS011;63902;52.000;5.954;2023-02-19T04:39:09;14.13;;;4.20;;
67930;SDS011;63902;52.000;5.954;2023-02-19T04:40:10;9.40;;;3.38;;
67930;SDS011;63902;52.000;5.954;2023-02-19T04:41:10;6.80;;;3.97;;
67930;SDS011;63902;52.000;5.954;2023-02-19T04:42:11;7.88;;;3.50;;
67930;SDS011;63902;52.000;5.954;2023-02-19T04:43:11;13.00;;;4.70;;
67930;SDS011;63902;52.000;5.954;2023-02-19T04:44:12;8.93;;;3.63;;
67930;SDS011;63902;52.000;5.954;2023-02-19T04:45:12;11.05;;;3.97;;
67930;SDS011;63902;52.000;5.954;2023-02-19T04:46:12;13.27;;;3.58;;
67930;SDS011;63902;52.000;5.954;2023-02-19T04:47:13;9.27;;;4.70;;
67930;SDS011;63902;52.000;5.954;2023-02-19T04:48:13;6.07;;;3.50;;
67930;SDS011;63902;52.000;5.954;2023-02-19T04:49:14;10.18;;;3.97;;
67930;SDS011;63902;52.000;5.954;2023-02-19T04:50:16;6.63;;;3.88;;
67930;SDS011;63902;52.000;5.954;2023-02-19T04:51:17;12.02;;;4.20;;
67930;SDS011;63902;52.000;5.954;2023-02-19T04:52:17;9.65;;;3.20;;
67930;SDS011;63902;52.000;5.954;2023-02-19T04:53:17;5.93;;;3.50;;
67930;SDS011;63902;52.000;5.954;2023-02-19T04:54:18;11.15;;;4.15;;
67930;SDS011;63902;52.000;5.954;2023-02-19T04:55:18;12.90;;;4.00;;
67930;SDS011;63902;52.000;5.954;2023-02-19T04:56:19;9.07;;;4.00;;
67930;SDS011;63902;52.000;5.954;2023-02-19T04:57:19;16.15;;;4.00;;
67930;SDS011;63902;52.000;5.954;2023-02-19T04:58:20;15.73;;;3.90;;
67930;SDS011;63902;52.000;5.954;2023-02-19T04:59:20;8.32;;;4.10;;
67930;SDS011;63902;52.000;5.954;2023-02-19T05:00:21;7.85;;;4.63;;
67930;SDS011;63902;52.000;5.954;2023-02-19T05:01:21;10.00;;;3.50;;
67930;SDS011;63902;52.000;5.954;2023-02-19T05:02:22;8.38;;;3.47;;
67930;SDS011;63902;52.000;5.954;2023-02-19T05:03:22;8.18;;;3.70;;
67930;SDS011;63902;52.000;5.954;2023-02-19T05:04:23;11.68;;;4.18;;
67930;SDS011;63902;52.000;5.954;2023-02-19T05:05:25;10.95;;;3.88;;
67930;SDS011;63902;52.000;5.954;2023-02-19T05:06:25;8.43;;;3.75;;
67930;SDS011;63902;52.000;5.954;2023-02-19T05:07:26;9.88;;;4.25;;
67930;SDS011;63902;52.000;5.954;2023-02-19T05:08:26;13.00;;;3.92;;
67930;SDS011;63902;52.000;5.954;2023-02-19T05:09:27;11.02;;;3.72;;
67930;SDS011;63902;52.000;5.954;2023-02-19T05:10:27;9.57;;;3.40;;
67930;SDS011;63902;52.000;5.954;2023-02-19T05:11:28;8.88;;;4.07;;
67930;SDS011;63902;52.000;5.954;2023-02-19T05:12:28;11.13;;;4.07;;
67930;SDS011;63902;52.000;5.954;2023-02-19T05:13:29;7.40;;;3.78;;
67930;SDS011;63902;52.000;5.954;2023-02-19T05:14:30;5.43;;;3.35;;
67930;SDS011;63902;52.000;5.954;2023-02-19T05:15:30;6.20;;;3.08;;
67930;SDS011;63902;52.000;5.954;2023-02-19T05:16:31;6.60;;;3.50;;
67930;SDS011;63902;52.000;5.954;2023-02-19T05:17:31;6.57;;;3.60;;
67930;SDS011;63902;52.000;5.954;2023-02-19T05:18:32;7.78;;;3.22;;
67930;SDS011;63902;52.000;5.954;2023-02-19T05:19:33;9.27;;;3.67;;
67930;SDS011;63902;52.000;5.954;2023-02-19T05:21:37;7.65;;;3.88;;
67930;SDS011;63902;52.000;5.954;2023-02-19T05:22:37;8.98;;;4.03;;
67930;SDS011;63902;52.000;5.954;2023-02-19T05:23:38;10.82;;;3.80;;
67930;SDS011;63902;52.000;5.954;2023-02-19T05:24:39;9.32;;;3.35;;
67930;SDS011;63902;52.000;5.954;2023-02-19T05:25:39;9.38;;;3.97;;
67930;SDS011;63902;52.000;5.954;2023-02-19T05:26:40;13.77;;;4.25;;
67930;SDS011;63902;52.000;5.954;2023-02-19T05:27:40;9.05;;;3.67;;
67930;SDS011;63902;52.000;5.954;2023-02-19T05:28:40;9.68;;;4.25;;
67930;SDS011;63902;52.000;5.954;2023-02-19T05:29:41;5.30;;;3.70;;
67930;SDS011;63902;52.000;5.954;2023-02-19T05:30:41;7.70;;;3.97;;
67930;SDS011;63902;52.000;5.954;2023-02-19T05:31:42;10.35;;;3.90;;
67930;SDS011;63902;52.000;5.954;2023-02-19T05:32:42;7.03;;;3.65;;
67930;SDS011;63902;52.000;5.954;2023-02-19T05:33:43;12.77;;;4.30;;
67930;SDS011;63902;52.000;5.954;2023-02-19T05:34:43;8.68;;;4.78;;
67930;SDS011;63902;52.000;5.954;2023-02-19T05:35:46;10.75;;;4.72;;
67930;SDS011;63902;52.000;5.954;2023-02-19T05:36:48;11.45;;;4.60;;
67930;SDS011;63902;52.000;5.954;2023-02-19T05:37:48;8.60;;;4.18;;
67930;SDS011;63902;52.000;5.954;2023-02-19T05:38:50;8.38;;;4.40;;
67930;SDS011;63902;52.000;5.954;2023-02-19T05:39:52;11.40;;;4.57;;
67930;SDS011;63902;52.000;5.954;2023-02-19T05:40:52;11.23;;;4.93;;
67930;SDS011;63902;52.000;5.954;2023-02-19T05:41:52;10.32;;;4.03;;
67930;SDS011;63902;52.000;5.954;2023-02-19T05:42:53;10.07;;;4.38;;
67930;SDS011;63902;52.000;5.954;2023-02-19T05:43:53;8.43;;;4.00;;
67930;SDS011;63902;52.000;5.954;2023-02-19T05:44:55;12.70;;;4.43;;
67930;SDS011;63902;52.000;5.954;2023-02-19T05:45:56;14.23;;;4.43;;
67930;SDS011;63902;52.000;5.954;2023-02-19T05:46:57;8.05;;;4.00;;
67930;SDS011;63902;52.000;5.954;2023-02-19T05:47:57;14.73;;;4.10;;
67930;SDS011;63902;52.000;5.954;2023-02-19T05:48:58;17.42;;;4.03;;
67930;SDS011;63902;52.000;5.954;2023-02-19T05:49:59;7.85;;;3.60;;
67930;SDS011;63902;52.000;5.954;2023-02-19T05:51:02;10.38;;;3.78;;
67930;SDS011;63902;52.000;5.954;2023-02-19T05:52:03;10.98;;;3.70;;
67930;SDS011;63902;52.000;5.954;2023-02-19T05:53:04;11.55;;;4.15;;
67930;SDS011;63902;52.000;5.954;2023-02-19T05:54:05;9.77;;;3.72;;
67930;SDS011;63902;52.000;5.954;2023-02-19T05:55:05;6.80;;;3.47;;
67930;SDS011;63902;52.000;5.954;2023-02-19T05:56:14;7.75;;;3.50;;
67930;SDS011;63902;52.000;5.954;2023-02-19T05:57:23;6.35;;;3.38;;
67930;SDS011;63902;52.000;5.954;2023-02-19T05:58:24;9.85;;;4.20;;
67930;SDS011;63902;52.000;5.954;2023-02-19T05:59:24;10.77;;;4.07;;
67930;SDS011;63902;52.000;5.954;2023-02-19T06:00:25;9.70;;;4.45;;
67930;SDS011;63902;52.000;5.954;2023-02-19T06:01:27;12.25;;;3.95;;
67930;SDS011;63902;52.000;5.954;2023-02-19T06:02:28;11.88;;;4.43;;
67930;SDS011;63902;52.000;5.954;2023-02-19T06:03:28;11.65;;;4.35;;
67930;SDS011;63902;52.000;5.954;2023-02-19T06:04:28;15.27;;;4.72;;
67930;SDS011;63902;52.000;5.954;2023-02-19T06:05:29;11.57;;;4.38;;
67930;SDS011;63902;52.000;5.954;2023-02-19T06:06:31;18.38;;;4.13;;
67930;SDS011;63902;52.000;5.954;2023-02-19T06:07:31;8.43;;;4.15;;
67930;SDS011;63902;52.000;5.954;2023-02-19T06:08:33;6.63;;;3.63;;
67930;SDS011;63902;52.000;5.954;2023-02-19T06:09:33;11.45;;;4.20;;
67930;SDS011;63902;52.000;5.954;2023-02-19T06:10:33;11.90;;;4.15;;
67930;SDS011;63902;52.000;5.954;2023-02-19T06:11:34;12.82;;;4.35;;
67930;SDS011;63902;52.000;5.954;2023-02-19T06:12:35;9.98;;;3.83;;
67930;SDS011;63902;52.000;5.954;2023-02-19T06:13:36;10.15;;;4.00;;
67930;SDS011;63902;52.000;5.954;2023-02-19T06:14:36;7.75;;;3.13;;
67930;SDS011;63902;52.000;5.954;2023-02-19T06:15:37;7.88;;;3.22;;